createdAt,value
2019-04-07T00:01:56.009Z,25.28
2019-04-07T00:04:22.521Z,25.27
2019-04-07T00:06:48.856Z,25.25
2019-04-07T00:09:15.514Z,25.28
2019-04-07T00:11:42.767Z,25.26
2019-04-07T00:14:08.838Z,25.25
2019-04-07T00:16:35.530Z,25.26
2019-04-07T00:19:02.223Z,25.28
2019-04-07T00:21:29.197Z,25.21
2019-04-07T00:23:56.119Z,25.23
2019-04-07T00:26:22.596Z,25.20
2019-04-07T00:28:48.879Z,25.17
2019-04-07T00:31:15.626Z,25.13
2019-04-07T00:33:42.639Z,25.08
2019-04-07T00:36:09.505Z,25.02
2019-04-07T00:38:35.914Z,25.05
2019-04-07T00:41:02.275Z,25.03
2019-04-07T00:43:29.235Z,25.06
2019-04-07T00:45:55.919Z,25.07
2019-04-07T00:48:22.362Z,25.07
2019-04-07T00:50:49.022Z,25.03
2019-04-07T00:53:15.671Z,25.03
2019-04-07T00:55:42.476Z,25.00
2019-04-07T00:58:09.052Z,24.99
2019-04-07T01:00:35.736Z,24.98
2019-04-07T01:03:02.916Z,24.96
2019-04-07T01:05:36.166Z,24.94
2019-04-07T01:07:56.403Z,24.95
2019-04-07T01:10:22.542Z,24.95
2019-04-07T01:12:49.206Z,24.95
2019-04-07T01:15:15.866Z,24.94
2019-04-07T01:17:42.542Z,24.88
2019-04-07T01:20:09.223Z,24.89
2019-04-07T01:22:36.386Z,24.82
2019-04-07T01:25:02.574Z,24.82
2019-04-07T01:27:29.212Z,24.79
2019-04-07T01:29:56.428Z,24.80
2019-04-07T01:32:22.576Z,24.70
2019-04-07T01:34:49.402Z,24.66
2019-04-07T01:37:16.262Z,24.65
2019-04-07T01:39:42.638Z,24.62
2019-04-07T01:42:09.209Z,24.61
2019-04-07T01:44:35.853Z,24.58
2019-04-07T01:47:02.506Z,24.57
2019-04-07T01:49:29.188Z,24.54
2019-04-07T01:51:56.367Z,24.54
2019-04-07T01:54:22.974Z,24.54
2019-04-07T01:56:49.196Z,24.51
2019-04-07T01:59:15.851Z,24.54
2019-04-07T02:01:42.759Z,24.50
2019-04-07T02:04:09.359Z,24.49
2019-04-07T02:06:36.499Z,24.50
2019-04-07T02:09:02.957Z,24.48
2019-04-07T02:11:29.260Z,24.52
2019-04-07T02:13:55.922Z,24.50
2019-04-07T02:16:22.575Z,24.47
2019-04-07T02:18:49.581Z,24.49
2019-04-07T02:21:15.907Z,24.46
2019-04-07T02:23:42.578Z,24.46
2019-04-07T02:26:09.227Z,24.47
2019-04-07T02:28:35.895Z,24.48
2019-04-07T02:31:02.720Z,24.46
2019-04-07T02:33:29.230Z,24.46
2019-04-07T02:35:56.087Z,24.46
2019-04-07T02:38:23.075Z,24.45
2019-04-07T02:40:49.224Z,24.44
2019-04-07T02:43:15.978Z,24.44
2019-04-07T02:45:43.176Z,24.47
2019-04-07T02:48:09.177Z,24.42
2019-04-07T02:50:36.702Z,24.44
2019-04-07T02:53:02.876Z,24.46
2019-04-07T02:55:29.906Z,24.42
2019-04-07T02:57:56.160Z,24.46
2019-04-07T03:00:22.561Z,24.45
2019-04-07T03:02:49.712Z,24.44
2019-04-07T03:05:16.044Z,24.46
2019-04-07T03:07:43.110Z,24.47
2019-04-07T03:10:09.356Z,24.50
2019-04-07T03:12:36.023Z,24.49
2019-04-07T03:15:02.999Z,24.52
2019-04-07T03:17:29.810Z,24.49
2019-04-07T03:19:56.199Z,24.51
2019-04-07T03:22:23.693Z,24.53
2019-04-07T03:24:49.760Z,24.50
2019-04-07T03:27:16.049Z,24.53
2019-04-07T03:29:42.782Z,24.54
2019-04-07T03:32:12.005Z,24.60
2019-04-07T03:34:38.029Z,24.58
2019-04-07T03:37:19.142Z,24.56
2019-04-07T03:39:30.142Z,24.61
2019-04-07T03:41:56.111Z,24.63
2019-04-07T03:44:22.818Z,24.57
2019-04-07T03:46:49.604Z,24.61
2019-04-07T03:49:16.979Z,24.58
2019-04-07T03:51:43.698Z,24.65
2019-04-07T03:54:10.132Z,24.64
2019-04-07T03:56:37.199Z,24.62
2019-04-07T03:59:03.397Z,24.62
2019-04-07T04:01:29.959Z,24.62
2019-04-07T04:03:56.667Z,24.66
2019-04-07T04:06:22.968Z,24.65
2019-04-07T04:08:49.603Z,24.65
2019-04-07T04:11:16.250Z,24.69
2019-04-07T04:13:42.917Z,24.69
2019-04-07T04:16:10.428Z,24.64
2019-04-07T04:18:37.454Z,24.70
2019-04-07T04:21:03.530Z,24.53
2019-04-07T04:23:30.295Z,24.77
2019-04-07T04:25:56.343Z,24.91
2019-04-07T04:28:23.684Z,25.01
2019-04-07T04:30:50.570Z,25.00
2019-04-07T04:33:16.308Z,24.92
2019-04-07T04:35:43.982Z,24.98
2019-04-07T04:38:10.260Z,25.04
2019-04-07T04:40:36.301Z,25.00
2019-04-07T04:43:02.954Z,25.00
2019-04-07T04:45:29.624Z,24.97
2019-04-07T04:47:56.277Z,24.99
2019-04-07T04:50:23.652Z,24.98
2019-04-07T04:52:49.608Z,24.97
2019-04-07T04:55:16.685Z,24.96
2019-04-07T04:57:42.919Z,24.97
2019-04-07T05:00:10.375Z,24.95
2019-04-07T05:02:36.286Z,24.95
2019-04-07T05:05:03.910Z,24.94
2019-04-07T05:07:30.031Z,24.91
2019-04-07T05:09:56.760Z,24.93
2019-04-07T05:12:23.211Z,24.92
2019-04-07T05:14:50.195Z,24.92
2019-04-07T05:17:16.426Z,24.90
2019-04-07T05:19:42.992Z,24.90
2019-04-07T05:22:10.241Z,24.95
2019-04-07T05:24:36.701Z,24.95
2019-04-07T05:27:03.156Z,24.95
2019-04-07T05:29:30.247Z,24.96
2019-04-07T05:31:56.641Z,24.97
2019-04-07T05:34:23.175Z,24.98
2019-04-07T05:36:49.675Z,24.97
2019-04-07T05:39:16.542Z,24.97
2019-04-07T05:41:42.977Z,25.00
2019-04-07T05:44:09.646Z,25.02
2019-04-07T05:46:40.913Z,24.99
2019-04-07T05:49:03.077Z,25.01
2019-04-07T05:51:31.172Z,25.01
2019-04-07T05:53:57.043Z,25.00
2019-04-07T05:56:25.996Z,24.99
2019-04-07T05:58:49.665Z,24.99
2019-04-07T06:01:21.709Z,24.99
2019-04-07T06:03:43.631Z,25.01
2019-04-07T06:06:10.387Z,25.02
2019-04-07T06:08:39.160Z,25.01
2019-04-07T06:11:03.053Z,25.06
2019-04-07T06:13:30.039Z,25.02
2019-04-07T06:15:56.519Z,25.04
2019-04-07T06:18:23.031Z,25.01
2019-04-07T06:20:49.835Z,25.02
2019-04-07T06:23:16.997Z,25.05
2019-04-07T06:25:43.968Z,25.02
2019-04-07T06:28:09.754Z,25.02
2019-04-07T06:30:37.174Z,24.94
2019-04-07T06:33:05.527Z,25.02
2019-04-07T06:35:29.810Z,25.02
2019-04-07T06:37:58.093Z,25.00
2019-04-07T06:40:23.180Z,24.98
2019-04-07T06:42:49.990Z,25.00
2019-04-07T06:45:16.523Z,25.00
2019-04-07T06:47:43.301Z,25.00
2019-04-07T06:50:09.930Z,24.98
2019-04-07T06:52:40.617Z,24.98
2019-04-07T06:55:03.401Z,24.96
2019-04-07T06:57:29.941Z,24.93
2019-04-07T06:59:56.769Z,24.90
2019-04-07T07:02:23.911Z,24.87
2019-04-07T07:04:50.649Z,24.85
2019-04-07T07:07:18.875Z,24.80
2019-04-07T07:09:43.315Z,24.73
2019-04-07T07:12:19.189Z,24.69
2019-04-07T07:14:43.285Z,24.68
2019-04-07T07:17:03.349Z,24.63
2019-04-07T07:19:30.009Z,24.57
2019-04-07T07:21:56.817Z,24.51
2019-04-07T07:24:25.362Z,24.50
2019-04-07T07:26:50.380Z,24.43
2019-04-07T07:29:18.066Z,24.38
2019-04-07T07:31:43.612Z,24.34
2019-04-07T07:34:11.073Z,24.32
2019-04-07T07:36:37.103Z,24.28
2019-04-07T07:39:08.718Z,24.24
2019-04-07T07:41:30.049Z,24.17
2019-04-07T07:44:00.649Z,24.16
2019-04-07T07:46:23.847Z,24.14
2019-04-07T07:48:50.107Z,24.11
2019-04-07T07:51:16.726Z,24.06
2019-04-07T07:53:43.369Z,24.00
2019-04-07T07:56:12.386Z,23.98
2019-04-07T07:58:36.731Z,23.99
2019-04-07T08:01:03.383Z,23.99
2019-04-07T08:03:30.340Z,23.98
2019-04-07T08:05:56.687Z,23.97
2019-04-07T08:08:23.472Z,24.00
2019-04-07T08:10:50.728Z,24.00
2019-04-07T08:13:16.840Z,24.00
2019-04-07T08:15:43.748Z,23.99
2019-04-07T08:18:10.011Z,23.95
2019-04-07T08:20:37.327Z,23.94
2019-04-07T08:23:03.702Z,23.98
2019-04-07T08:25:30.257Z,23.97
2019-04-07T08:27:57.447Z,23.95
2019-04-07T08:30:23.794Z,23.93
2019-04-07T08:32:50.088Z,23.95
2019-04-07T08:35:17.549Z,23.89
2019-04-07T08:37:45.708Z,23.95
2019-04-07T08:40:10.834Z,23.89
2019-04-07T08:42:36.959Z,23.92
2019-04-07T08:45:03.497Z,23.90
2019-04-07T08:47:30.189Z,23.83
2019-04-07T08:49:57.798Z,23.81
2019-04-07T08:52:23.481Z,23.83
2019-04-07T08:54:51.655Z,23.82
2019-04-07T08:57:16.803Z,23.72
2019-04-07T08:59:43.486Z,23.69
2019-04-07T09:02:10.139Z,23.67
2019-04-07T09:04:36.810Z,23.63
2019-04-07T09:07:04.377Z,23.59
2019-04-07T09:09:33.849Z,23.53
2019-04-07T09:11:57.562Z,23.53
2019-04-07T09:14:23.660Z,23.47
2019-04-07T09:16:53.281Z,23.46
2019-04-07T09:19:16.750Z,23.40
2019-04-07T09:21:47.543Z,23.41
2019-04-07T09:24:10.123Z,23.33
2019-04-07T09:26:36.724Z,23.31
2019-04-07T09:29:04.010Z,23.29
2019-04-07T09:31:30.402Z,23.30
2019-04-07T09:33:57.197Z,23.24
2019-04-07T09:36:23.467Z,23.19
2019-04-07T09:38:50.350Z,23.22
2019-04-07T09:41:20.444Z,23.40
2019-04-07T09:43:43.909Z,23.22
2019-04-07T09:46:10.970Z,23.19
2019-04-07T09:48:39.061Z,23.14
2019-04-07T09:51:06.903Z,23.18
2019-04-07T09:53:30.500Z,23.20
2019-04-07T09:55:57.954Z,23.21
2019-04-07T09:58:23.956Z,23.24
2019-04-07T10:00:50.710Z,23.23
2019-04-07T10:03:16.725Z,23.24
2019-04-07T10:05:43.392Z,23.24
2019-04-07T10:08:12.497Z,23.26
2019-04-07T10:10:37.161Z,23.23
2019-04-07T10:13:03.390Z,23.26
2019-04-07T10:15:30.044Z,23.24
2019-04-07T10:17:56.690Z,23.24
2019-04-07T10:20:24.096Z,23.16
2019-04-07T10:22:50.585Z,23.12
2019-04-07T10:25:16.702Z,23.13
2019-04-07T10:27:44.042Z,23.11
2019-04-07T10:30:10.028Z,23.11
2019-04-07T10:32:36.719Z,23.10
2019-04-07T10:35:03.388Z,23.05
2019-04-07T10:37:30.226Z,23.08
2019-04-07T10:39:58.188Z,23.11
2019-04-07T10:42:23.618Z,23.07
2019-04-07T10:44:50.439Z,23.10
2019-04-07T10:47:17.140Z,23.08
2019-04-07T10:49:44.241Z,23.13
2019-04-07T10:52:10.260Z,23.08
2019-04-07T10:54:37.077Z,23.13
2019-04-07T10:57:04.303Z,23.17
2019-04-07T10:59:30.799Z,23.21
2019-04-07T11:01:57.810Z,23.18
2019-04-07T11:04:23.972Z,23.24
2019-04-07T11:06:50.230Z,23.24
2019-04-07T11:09:16.854Z,23.29
2019-04-07T11:11:43.819Z,23.34
2019-04-07T11:14:11.245Z,23.35
2019-04-07T11:16:37.621Z,23.39
2019-04-07T11:19:04.248Z,23.40
2019-04-07T11:21:30.451Z,23.41
2019-04-07T11:23:57.731Z,23.40
2019-04-07T11:26:23.661Z,23.43
2019-04-07T11:28:50.286Z,23.46
2019-04-07T11:31:16.943Z,23.48
2019-04-07T11:33:43.835Z,23.53
2019-04-07T11:36:10.648Z,23.55
2019-04-07T11:38:36.968Z,23.56
2019-04-07T11:41:04.286Z,23.62
2019-04-07T11:43:30.512Z,23.65
2019-04-07T11:46:01.338Z,23.57
2019-04-07T11:48:24.163Z,23.61
2019-04-07T11:50:50.611Z,23.59
2019-04-07T11:53:17.031Z,23.67
2019-04-07T11:55:44.259Z,23.68
2019-04-07T11:58:15.602Z,23.71
2019-04-07T12:00:39.091Z,23.73
2019-04-07T12:03:03.979Z,23.56
2019-04-07T12:05:31.110Z,23.78
2019-04-07T12:07:58.491Z,23.78
2019-04-07T12:10:23.869Z,23.77
2019-04-07T12:12:50.441Z,23.81
2019-04-07T12:15:19.550Z,23.80
2019-04-07T12:17:43.765Z,23.80
2019-04-07T12:20:10.836Z,23.78
2019-04-07T12:22:37.899Z,23.79
2019-04-07T12:25:05.431Z,23.45
2019-04-07T12:27:30.406Z,23.93
2019-04-07T12:29:58.082Z,24.11
2019-04-07T12:32:23.890Z,24.11
2019-04-07T12:34:50.943Z,24.16
2019-04-07T12:37:17.563Z,24.19
2019-04-07T12:39:47.230Z,24.13
2019-04-07T12:42:11.331Z,24.17
2019-04-07T12:44:37.405Z,24.14
2019-04-07T12:47:04.803Z,24.17
2019-04-07T12:49:33.241Z,24.18
2019-04-07T12:51:57.374Z,24.15
2019-04-07T12:54:24.076Z,24.12
2019-04-07T12:56:50.757Z,24.09
2019-04-07T12:59:18.287Z,24.08
2019-04-07T13:01:47.274Z,24.07
2019-04-07T13:04:11.156Z,24.11
2019-04-07T13:06:42.336Z,24.17
2019-04-07T13:09:04.223Z,24.14
2019-04-07T13:11:36.282Z,24.18
2019-04-07T13:14:01.711Z,24.18
2019-04-07T13:16:26.316Z,24.16
2019-04-07T13:18:51.937Z,24.12
2019-04-07T13:21:18.341Z,24.13
2019-04-07T13:23:44.922Z,24.10
2019-04-07T13:26:12.050Z,24.11
2019-04-07T13:28:37.914Z,24.05
2019-04-07T13:31:04.886Z,24.09
2019-04-07T13:33:31.723Z,24.09
2019-04-07T13:35:58.020Z,24.09
2019-04-07T13:38:25.074Z,24.10
2019-04-07T13:40:52.011Z,24.11
2019-04-07T13:43:18.698Z,24.02
2019-04-07T13:45:46.916Z,24.08
2019-04-07T13:48:14.776Z,24.09
2019-04-07T13:50:38.333Z,24.13
2019-04-07T13:53:05.615Z,24.11
2019-04-07T13:55:32.395Z,24.15
2019-04-07T13:58:00.680Z,24.23
2019-04-07T14:00:25.305Z,24.17
2019-04-07T14:02:52.075Z,24.20
2019-04-07T14:05:18.780Z,24.23
2019-04-07T14:07:49.213Z,24.26
2019-04-07T14:10:13.169Z,24.30
2019-04-07T14:12:39.037Z,24.34
2019-04-07T14:15:05.618Z,24.34
2019-04-07T14:17:32.311Z,24.38
2019-04-07T14:19:59.475Z,24.37
2019-04-07T14:22:26.602Z,24.39
2019-04-07T14:24:52.644Z,24.42
2019-04-07T14:27:19.708Z,24.43
2019-04-07T14:29:46.095Z,24.43
2019-04-07T14:32:13.110Z,24.46
2019-04-07T14:34:40.189Z,24.35
2019-04-07T14:37:06.190Z,24.45
2019-04-07T14:39:32.862Z,24.46
2019-04-07T14:42:04.790Z,24.49
2019-04-07T14:44:26.259Z,24.51
2019-04-07T14:46:53.996Z,24.50
2019-04-07T14:49:19.921Z,24.51
2019-04-07T14:51:47.189Z,24.53
2019-04-07T14:54:13.346Z,24.54
2019-04-07T14:56:40.717Z,24.53
2019-04-07T14:59:06.697Z,24.55
2019-04-07T15:01:33.654Z,24.55
2019-04-07T15:04:01.037Z,24.56
2019-04-07T15:06:31.193Z,24.58
2019-04-07T15:08:53.434Z,24.62
2019-04-07T15:11:20.298Z,24.63
2019-04-07T15:13:47.431Z,24.64
2019-04-07T15:16:13.752Z,24.67
2019-04-07T15:18:41.112Z,24.68
2019-04-07T15:21:07.924Z,24.72
2019-04-07T15:23:33.864Z,24.78
2019-04-07T15:26:00.567Z,24.77
2019-04-07T15:28:29.734Z,24.79
2019-04-07T15:30:53.988Z,24.82
2019-04-07T15:33:21.146Z,24.83
2019-04-07T15:35:50.171Z,24.87
2019-04-07T15:38:14.277Z,24.90
2019-04-07T15:40:44.745Z,24.93
2019-04-07T15:43:09.847Z,24.95
2019-04-07T15:45:35.489Z,24.94
2019-04-07T15:48:01.042Z,25.00
2019-04-07T15:50:30.178Z,25.01
2019-04-07T15:52:55.235Z,25.06
2019-04-07T15:55:21.767Z,25.04
2019-04-07T15:57:48.058Z,25.08
2019-04-07T16:00:15.339Z,25.10
2019-04-07T16:02:43.064Z,25.12
2019-04-07T16:05:07.953Z,25.11
2019-04-07T16:07:35.227Z,25.14
2019-04-07T16:10:01.943Z,25.17
2019-04-07T16:12:28.719Z,25.17
2019-04-07T16:14:55.739Z,25.19
2019-04-07T16:17:21.596Z,25.22
2019-04-07T16:19:52.057Z,25.22
2019-04-07T16:22:15.497Z,25.23
2019-04-07T16:24:41.705Z,25.24
2019-04-07T16:27:08.995Z,25.27
2019-04-07T16:29:35.219Z,25.28
2019-04-07T16:32:02.004Z,25.29
2019-04-07T16:34:28.685Z,25.30
2019-04-07T16:36:58.245Z,25.34
2019-04-07T16:39:23.019Z,25.34
2019-04-07T16:41:49.345Z,25.36
2019-04-07T16:44:15.932Z,25.34
2019-04-07T16:46:42.654Z,25.37
2019-04-07T16:49:11.514Z,25.39
2019-04-07T16:51:36.303Z,25.42
2019-04-07T16:54:02.737Z,25.46
2019-04-07T16:56:29.191Z,25.48
2019-04-07T16:58:56.652Z,25.52
2019-04-07T17:01:24.581Z,25.54
2019-04-07T17:03:49.917Z,25.58
2019-04-07T17:06:16.033Z,25.59
2019-04-07T17:08:43.378Z,25.63
2019-04-07T17:11:09.652Z,25.65
2019-04-07T17:13:41.239Z,25.71
2019-04-07T17:16:02.899Z,25.75
2019-04-07T17:18:30.094Z,25.79
2019-04-07T17:20:57.175Z,25.78
2019-04-07T17:23:24.220Z,25.84
2019-04-07T17:25:50.318Z,25.89
2019-04-07T17:28:16.578Z,25.93
2019-04-07T17:30:43.336Z,25.94
2019-04-07T17:33:10.174Z,25.95
2019-04-07T17:35:37.065Z,25.97
2019-04-07T17:38:06.278Z,26.03
2019-04-07T17:40:30.799Z,26.03
2019-04-07T17:42:57.049Z,26.08
2019-04-07T17:45:24.643Z,26.08
2019-04-07T17:47:50.423Z,26.08
2019-04-07T17:50:17.864Z,26.16
2019-04-07T17:52:44.170Z,26.16
2019-04-07T17:55:10.682Z,26.19
2019-04-07T17:57:38.234Z,26.19
2019-04-07T18:00:04.693Z,26.21
2019-04-07T18:02:32.603Z,26.23
2019-04-07T18:04:57.467Z,26.27
2019-04-07T18:07:24.157Z,26.25
2019-04-07T18:09:52.369Z,26.31
2019-04-07T18:12:17.755Z,26.31
2019-04-07T18:14:44.306Z,26.33
2019-04-07T18:17:11.067Z,26.36
2019-04-07T18:19:37.764Z,26.37
2019-04-07T18:22:04.561Z,26.35
2019-04-07T18:24:31.781Z,26.36
2019-04-07T18:26:58.379Z,26.38
2019-04-07T18:29:28.616Z,26.39
2019-04-07T18:31:51.989Z,26.39
2019-04-07T18:34:18.597Z,26.43
2019-04-07T18:36:44.687Z,26.41
2019-04-07T18:39:13.482Z,26.45
2019-04-07T18:41:38.254Z,26.43
2019-04-07T18:44:08.465Z,26.43
2019-04-07T18:46:31.525Z,26.40
2019-04-07T18:49:01.178Z,26.41
2019-04-07T18:51:25.257Z,26.42
2019-04-07T18:53:51.956Z,26.45
2019-04-07T18:56:20.373Z,26.56
2019-04-07T18:58:48.662Z,26.46
2019-04-07T19:01:11.903Z,26.49
2019-04-07T19:03:38.626Z,26.47
2019-04-07T19:06:08.274Z,26.51
2019-04-07T19:08:32.045Z,26.51
2019-04-07T19:11:10.559Z,26.50
2019-04-07T19:13:27.216Z,26.55
2019-04-07T19:15:52.160Z,26.58
2019-04-07T19:18:18.822Z,26.59
2019-04-07T19:20:48.386Z,26.58
2019-04-07T19:23:15.259Z,26.55
2019-04-07T19:25:45.323Z,26.61
2019-04-07T19:28:09.315Z,26.58
2019-04-07T19:30:35.516Z,26.60
2019-04-07T19:33:02.463Z,26.64
2019-04-07T19:35:29.713Z,26.65
2019-04-07T19:37:55.983Z,26.68
2019-04-07T19:40:23.515Z,26.65
2019-04-07T19:42:50.563Z,26.68
2019-04-07T19:45:15.567Z,26.72
2019-04-07T19:47:42.208Z,26.72
2019-04-07T19:50:11.064Z,26.73
2019-04-07T19:52:37.499Z,26.71
2019-04-07T19:55:02.218Z,26.75
2019-04-07T19:57:29.849Z,26.76
2019-04-07T19:59:55.568Z,26.75
2019-04-07T20:02:22.217Z,26.79
2019-04-07T20:04:52.500Z,26.82
2019-04-07T20:07:15.879Z,26.83
2019-04-07T20:09:45.851Z,26.90
2019-04-07T20:12:08.988Z,26.90
2019-04-07T20:14:46.011Z,26.93
2019-04-07T20:17:02.349Z,26.93
2019-04-07T20:19:36.157Z,26.94
2019-04-07T20:21:56.819Z,26.98
2019-04-07T20:24:22.347Z,26.98
2019-04-07T20:26:51.889Z,26.94
2019-04-07T20:29:15.680Z,27.06
2019-04-07T20:31:42.865Z,27.23
2019-04-07T20:34:09.798Z,27.36
2019-04-07T20:36:35.961Z,27.50
2019-04-07T20:39:02.361Z,27.44
2019-04-07T20:41:29.472Z,27.51
2019-04-07T20:43:55.816Z,27.45
2019-04-07T20:46:23.808Z,27.54
2019-04-07T20:48:49.667Z,27.39
2019-04-07T20:51:17.638Z,27.47
2019-04-07T20:53:42.955Z,27.45
2019-04-07T20:56:11.536Z,27.47
2019-04-07T20:58:46.460Z,27.52
2019-04-07T21:01:04.543Z,27.48
2019-04-07T21:03:29.124Z,27.50
2019-04-07T21:05:56.077Z,27.51
2019-04-07T21:08:24.302Z,27.54
2019-04-07T21:10:49.707Z,27.56
2019-04-07T21:13:16.758Z,27.55
2019-04-07T21:15:43.206Z,27.56
2019-04-07T21:18:09.418Z,27.60
2019-04-07T21:20:36.753Z,27.58
2019-04-07T21:23:02.867Z,27.68
2019-04-07T21:25:29.137Z,27.69
2019-04-07T21:27:56.021Z,27.67
2019-04-07T21:30:22.788Z,27.67
2019-04-07T21:32:51.368Z,27.69
2019-04-07T21:35:15.834Z,27.75
2019-04-07T21:37:45.068Z,27.77
2019-04-07T21:40:09.951Z,27.79
2019-04-07T21:42:36.096Z,27.79
2019-04-07T21:45:05.780Z,27.80
2019-04-07T21:47:29.325Z,27.80
2019-04-07T21:49:55.836Z,27.82
2019-04-07T21:52:23.382Z,27.81
2019-04-07T21:54:49.153Z,27.83
2019-04-07T21:57:15.808Z,27.81
2019-04-07T21:59:42.475Z,27.87
2019-04-07T22:02:11.688Z,27.88
2019-04-07T22:04:36.166Z,27.93
2019-04-07T22:07:02.446Z,27.94
2019-04-07T22:09:29.102Z,28.00
2019-04-07T22:11:56.210Z,28.05
2019-04-07T22:14:22.856Z,28.05
2019-04-07T22:16:49.316Z,28.03
2019-04-07T22:19:16.642Z,28.04
2019-04-07T22:21:42.638Z,28.06
2019-04-07T22:24:09.283Z,28.11
2019-04-07T22:26:35.952Z,28.11
2019-04-07T22:29:03.871Z,28.11
2019-04-07T22:31:29.247Z,28.10
2019-04-07T22:33:58.414Z,28.16
2019-04-07T22:36:23.063Z,28.16
2019-04-07T22:38:51.696Z,28.17
2019-04-07T22:41:15.925Z,28.23
2019-04-07T22:43:43.421Z,28.21
2019-04-07T22:46:17.501Z,28.22
2019-04-07T22:48:36.462Z,28.22
2019-04-07T22:51:03.780Z,28.24
2019-04-07T22:53:31.325Z,28.29
2019-04-07T22:55:56.837Z,28.29
2019-04-07T22:58:22.565Z,28.32
2019-04-07T23:00:50.503Z,28.38
2019-04-07T23:03:16.016Z,28.38
2019-04-07T23:05:42.859Z,28.48
2019-04-07T23:08:10.345Z,28.42
2019-04-07T23:10:36.102Z,28.46
2019-04-07T23:13:03.588Z,28.50
2019-04-07T23:15:39.572Z,28.50
2019-04-07T23:17:56.074Z,28.45
2019-04-07T23:20:23.496Z,28.55
2019-04-07T23:22:49.971Z,28.50
2019-04-07T23:25:16.134Z,28.52
2019-04-07T23:27:43.649Z,28.57
2019-04-07T23:30:09.601Z,28.56
2019-04-07T23:32:36.252Z,28.57
2019-04-07T23:35:02.916Z,28.54
2019-04-07T23:37:29.582Z,28.58
2019-04-07T23:39:56.241Z,28.59
2019-04-07T23:42:22.902Z,28.56
2019-04-07T23:44:49.889Z,28.53
2019-04-07T23:47:16.240Z,28.53
2019-04-07T23:49:42.891Z,28.56
2019-04-07T23:52:09.553Z,28.55
2019-04-07T23:54:36.227Z,28.57
2019-04-07T23:57:03.803Z,28.58
2019-04-07T23:59:30.329Z,28.62
